createdAt,value
2017-10-11T00:00:49.787Z,23.20
2017-10-11T00:03:19.740Z,28.53
2017-10-11T00:05:49.622Z,27.17
2017-10-11T00:08:19.577Z,29.13
2017-10-11T00:10:50.016Z,21.57
2017-10-11T00:13:19.864Z,21.30
2017-10-11T00:15:49.798Z,22.07
2017-10-11T00:18:19.689Z,24.23
2017-10-11T00:20:49.583Z,21.60
2017-10-11T00:23:19.887Z,26.30
2017-10-11T00:25:49.784Z,21.13
2017-10-11T00:28:20.127Z,20.13
2017-10-11T00:30:50.011Z,26.30
2017-10-11T00:33:20.526Z,22.20
2017-10-11T00:35:50.427Z,22.47
2017-10-11T00:38:20.713Z,23.00
2017-10-11T00:40:50.623Z,20.80
2017-10-11T00:43:21.030Z,25.83
2017-10-11T00:45:51.053Z,22.20
2017-10-11T00:48:21.373Z,19.10
2017-10-11T00:50:51.266Z,21.77
2017-10-11T00:53:21.658Z,23.40
2017-10-11T00:55:51.543Z,20.80
2017-10-11T00:58:21.880Z,22.40
2017-10-11T01:00:51.779Z,22.83
2017-10-11T01:03:22.094Z,22.30
2017-10-11T01:05:51.969Z,19.03
2017-10-11T01:08:22.223Z,18.50
2017-10-11T01:10:52.711Z,19.10
2017-10-11T01:13:22.961Z,22.40
2017-10-11T01:15:52.853Z,17.77
2017-10-11T01:18:22.750Z,19.70
2017-10-11T01:20:52.677Z,16.87
2017-10-11T01:23:22.550Z,18.80
2017-10-11T01:25:52.943Z,19.70
2017-10-11T01:28:22.872Z,19.80
2017-10-11T01:30:53.174Z,19.63
2017-10-11T01:33:23.050Z,14.73
2017-10-11T01:35:53.310Z,15.63
2017-10-11T01:38:23.171Z,18.30
2017-10-11T01:40:53.553Z,20.53
2017-10-11T01:43:23.452Z,26.80
2017-10-11T01:45:53.791Z,18.57
2017-10-11T01:48:23.903Z,18.23
2017-10-11T01:50:54.330Z,20.37
2017-10-11T01:53:24.194Z,15.67
2017-10-11T01:55:54.501Z,15.90
2017-10-11T01:58:24.369Z,17.77
2017-10-11T02:00:54.690Z,25.57
2017-10-11T02:03:24.560Z,15.30
2017-10-11T02:05:54.826Z,16.67
2017-10-11T02:08:24.758Z,17.83
2017-10-11T02:10:55.087Z,15.47
2017-10-11T02:13:24.983Z,15.93
2017-10-11T02:15:55.434Z,19.50
2017-10-11T02:18:25.333Z,19.17
2017-10-11T02:20:55.650Z,17.07
2017-10-11T02:23:25.601Z,21.83
2017-10-11T02:25:55.880Z,21.80
2017-10-11T02:28:25.778Z,15.73
2017-10-11T02:30:56.039Z,19.47
2017-10-11T02:33:25.953Z,18.33
2017-10-11T02:35:56.280Z,16.20
2017-10-11T02:38:26.154Z,21.53
2017-10-11T02:40:56.400Z,18.77
2017-10-11T02:43:26.293Z,16.57
2017-10-11T02:45:56.646Z,22.73
2017-10-11T02:48:26.527Z,21.97
2017-10-11T02:50:56.884Z,17.13
2017-10-11T02:53:26.794Z,23.07
2017-10-11T02:55:57.126Z,20.97
2017-10-11T02:58:27.078Z,18.10
2017-10-11T03:00:57.367Z,20.60
2017-10-11T03:03:27.243Z,19.30
2017-10-11T03:05:57.288Z,19.97
2017-10-11T03:08:27.174Z,18.00
2017-10-11T03:10:57.501Z,24.00
2017-10-11T03:13:27.422Z,23.80
2017-10-11T03:15:57.663Z,19.90
2017-10-11T03:18:27.586Z,20.10
2017-10-11T03:20:57.902Z,26.70
2017-10-11T03:23:27.795Z,24.63
2017-10-11T03:25:58.894Z,24.73
2017-10-11T03:28:28.778Z,25.90
2017-10-11T03:31:00.235Z,24.80
2017-10-11T03:33:30.135Z,23.63
2017-10-11T03:36:00.495Z,33.80
2017-10-11T03:38:30.393Z,24.50
2017-10-11T03:41:00.599Z,29.93
2017-10-11T03:43:30.486Z,28.97
2017-10-11T03:46:00.801Z,31.70
2017-10-11T03:48:30.696Z,28.83
2017-10-11T03:51:00.953Z,27.80
2017-10-11T03:53:30.863Z,30.60
2017-10-11T03:56:00.848Z,40.23
2017-10-11T03:58:30.757Z,31.27
2017-10-11T04:01:00.696Z,28.47
2017-10-11T04:03:31.015Z,27.27
2017-10-11T04:06:00.907Z,32.90
2017-10-11T04:08:30.820Z,29.80
2017-10-11T04:11:00.680Z,30.93
2017-10-11T04:13:30.612Z,31.60
2017-10-11T04:16:00.893Z,32.00
2017-10-11T04:18:30.827Z,30.77
2017-10-11T04:21:00.721Z,28.13
2017-10-11T04:23:30.594Z,36.27
2017-10-11T04:26:00.496Z,35.67
2017-10-11T04:28:30.788Z,35.10
2017-10-11T04:31:00.665Z,34.93
2017-10-11T04:33:31.009Z,39.07
2017-10-11T04:36:00.884Z,36.00
2017-10-11T04:38:30.838Z,37.27
2017-10-11T04:41:00.721Z,38.80
2017-10-11T04:43:31.262Z,37.60
2017-10-11T04:46:01.504Z,38.83
2017-10-11T04:48:31.385Z,40.87
2017-10-11T04:51:01.641Z,33.13
2017-10-11T04:53:31.561Z,32.77
2017-10-11T04:56:01.858Z,31.10
2017-10-11T04:58:31.755Z,31.80
2017-10-11T05:01:02.043Z,33.50
2017-10-11T05:03:32.051Z,29.80
2017-10-11T05:06:02.314Z,28.43
2017-10-11T05:08:32.190Z,33.87
2017-10-11T05:11:02.561Z,31.17
2017-10-11T05:13:32.558Z,29.07
2017-10-11T05:16:02.835Z,28.23
2017-10-11T05:18:32.725Z,23.93
2017-10-11T05:21:04.198Z,23.27
2017-10-11T05:23:34.873Z,27.20
2017-10-11T05:26:06.070Z,25.37
2017-10-11T05:28:36.125Z,28.37
2017-10-11T05:31:06.521Z,25.93
2017-10-11T05:33:36.435Z,24.00
2017-10-11T05:36:06.752Z,27.90
2017-10-11T05:38:36.866Z,30.33
2017-10-11T05:41:07.119Z,37.33
2017-10-11T05:43:37.039Z,24.37
2017-10-11T05:46:07.293Z,25.97
2017-10-11T05:48:37.199Z,25.57
2017-10-11T05:51:07.465Z,30.10
2017-10-11T05:53:37.343Z,26.50
2017-10-11T05:56:07.575Z,25.40
2017-10-11T05:58:37.479Z,24.33
2017-10-11T06:01:07.738Z,35.90
2017-10-11T06:03:37.647Z,24.73
2017-10-11T06:06:07.931Z,25.30
2017-10-11T06:08:37.900Z,25.23
2017-10-11T06:11:07.850Z,33.17
2017-10-11T06:13:37.826Z,28.10
2017-10-11T06:16:07.700Z,26.00
2017-10-11T06:18:38.176Z,24.17
2017-10-11T06:21:08.079Z,28.33
2017-10-11T06:23:38.359Z,25.43
2017-10-11T06:26:08.276Z,31.43
2017-10-11T06:28:38.512Z,28.53
2017-10-11T06:31:08.422Z,23.60
2017-10-11T06:33:38.842Z,26.10
2017-10-11T06:36:08.771Z,22.50
2017-10-11T06:38:39.089Z,25.40
2017-10-11T06:41:08.987Z,28.43
2017-10-11T06:43:39.418Z,24.70
2017-10-11T06:46:09.352Z,29.00
2017-10-11T06:48:39.667Z,25.37
2017-10-11T06:51:09.577Z,25.83
2017-10-11T06:53:39.848Z,28.63
2017-10-11T06:56:09.795Z,23.30
2017-10-11T06:58:39.760Z,26.43
2017-10-11T07:01:09.704Z,26.40
2017-10-11T07:03:40.576Z,28.93
2017-10-11T07:06:11.003Z,23.30
2017-10-11T07:08:40.910Z,19.10
2017-10-11T07:11:11.379Z,25.13
2017-10-11T07:13:41.298Z,24.07
2017-10-11T07:16:11.579Z,20.27
2017-10-11T07:18:41.506Z,18.93
2017-10-11T07:21:11.824Z,17.53
2017-10-11T07:23:41.750Z,17.13
2017-10-11T07:26:12.019Z,16.17
2017-10-11T07:28:42.191Z,20.70
2017-10-11T07:31:12.646Z,14.97
2017-10-11T07:33:43.859Z,14.00
2017-10-11T07:36:14.172Z,14.17
2017-10-11T07:38:44.188Z,14.17
2017-10-11T07:41:14.470Z,13.10
2017-10-11T07:43:44.366Z,12.20
2017-10-11T07:46:14.688Z,12.50
2017-10-11T07:48:44.558Z,15.67
2017-10-11T07:51:14.866Z,13.63
2017-10-11T07:53:44.754Z,13.57
2017-10-11T07:56:15.086Z,13.07
2017-10-11T07:58:45.001Z,12.60
2017-10-11T08:01:15.408Z,12.33
2017-10-11T08:03:45.439Z,12.47
2017-10-11T08:06:15.752Z,12.23
2017-10-11T08:08:45.661Z,14.80
2017-10-11T08:11:16.013Z,12.33
2017-10-11T08:13:45.914Z,12.47
2017-10-11T08:16:15.818Z,11.50
2017-10-11T08:18:45.786Z,10.33
2017-10-11T08:21:15.708Z,11.30
2017-10-11T08:23:46.014Z,10.10
2017-10-11T08:26:15.999Z,10.53
2017-10-11T08:28:46.518Z,10.17
2017-10-11T08:31:16.427Z,11.80
2017-10-11T08:33:46.696Z,10.10
2017-10-11T08:36:16.650Z,12.20
2017-10-11T08:38:46.870Z,11.43
2017-10-11T08:41:16.773Z,8.23
2017-10-11T08:43:46.677Z,9.53
2017-10-11T08:46:16.695Z,8.90
2017-10-11T08:48:46.607Z,10.20
2017-10-11T08:51:17.044Z,6.63
2017-10-11T08:53:46.909Z,10.60
2017-10-11T08:56:17.212Z,11.07
2017-10-11T08:58:47.106Z,8.30
2017-10-11T09:01:17.489Z,7.17
2017-10-11T09:03:47.383Z,3.07
2017-10-11T09:06:17.731Z,5.10
2017-10-11T09:08:47.617Z,2.23
2017-10-11T09:11:18.001Z,6.17
2017-10-11T09:13:48.051Z,4.63
2017-10-11T09:16:18.554Z,3.30
2017-10-11T09:18:48.495Z,3.00
2017-10-11T09:21:19.367Z,4.77
2017-10-11T09:23:49.298Z,3.20
2017-10-11T09:26:19.578Z,3.97
2017-10-11T09:28:49.480Z,7.60
2017-10-11T09:31:19.908Z,3.67
2017-10-11T09:33:49.789Z,4.63
2017-10-11T09:36:20.090Z,3.13
2017-10-11T09:38:49.995Z,3.67
2017-10-11T09:41:20.494Z,4.10
2017-10-11T09:43:50.402Z,5.23
2017-10-11T09:46:20.745Z,6.00
2017-10-11T09:48:50.711Z,3.93
2017-10-11T09:51:21.209Z,4.43
2017-10-11T09:53:51.163Z,3.90
2017-10-11T09:56:21.523Z,3.63
2017-10-11T09:58:51.533Z,4.50
2017-10-11T10:01:21.968Z,6.57
2017-10-11T10:03:51.904Z,13.23
2017-10-11T10:06:22.196Z,5.97
2017-10-11T10:08:52.795Z,6.83
2017-10-11T10:11:23.282Z,9.70
2017-10-11T10:13:53.203Z,9.37
2017-10-11T10:16:23.973Z,8.70
2017-10-11T10:18:53.851Z,12.57
2017-10-11T10:21:23.801Z,11.30
2017-10-11T10:23:53.675Z,12.97
2017-10-11T10:26:23.834Z,16.33
2017-10-11T10:28:54.084Z,17.27
2017-10-11T10:31:24.101Z,18.63
2017-10-11T10:33:54.561Z,17.27
2017-10-11T10:36:24.538Z,17.10
2017-10-11T10:38:54.899Z,21.50
2017-10-11T10:41:25.061Z,21.60
2017-10-11T10:43:55.300Z,21.03
2017-10-11T10:46:25.253Z,22.03
2017-10-11T10:48:55.519Z,22.63
2017-10-11T10:51:25.450Z,21.33
2017-10-11T10:53:55.774Z,21.13
2017-10-11T10:56:25.693Z,18.53
2017-10-11T10:58:55.998Z,22.40
2017-10-11T11:01:25.915Z,21.27
2017-10-11T11:03:55.833Z,23.00
2017-10-11T11:06:25.799Z,21.00
2017-10-11T11:08:55.715Z,22.57
2017-10-11T11:11:25.672Z,23.20
2017-10-11T11:13:56.403Z,22.57
2017-10-11T11:16:26.370Z,22.77
2017-10-11T11:18:56.268Z,26.53
2017-10-11T11:21:26.523Z,23.77
2017-10-11T11:23:56.472Z,24.73
2017-10-11T11:26:26.792Z,22.70
2017-10-11T11:28:56.676Z,22.83
2017-10-11T11:31:27.035Z,22.97
2017-10-11T11:33:56.971Z,22.77
2017-10-11T11:36:27.276Z,23.57
2017-10-11T11:38:57.188Z,20.43
2017-10-11T11:41:27.627Z,24.53
2017-10-11T11:43:57.583Z,30.37
2017-10-11T11:46:28.062Z,22.27
2017-10-11T11:48:57.950Z,22.03
2017-10-11T11:51:28.395Z,24.80
2017-10-11T11:53:58.315Z,23.30
2017-10-11T11:56:28.676Z,21.70
2017-10-11T11:58:58.662Z,20.33
2017-10-11T12:01:28.975Z,19.23
2017-10-11T12:03:58.886Z,22.27
2017-10-11T12:06:28.889Z,18.30
2017-10-11T12:08:58.797Z,19.17
2017-10-11T12:11:28.817Z,19.07
2017-10-11T12:13:59.174Z,24.00
2017-10-11T12:16:29.066Z,18.27
2017-10-11T12:18:59.449Z,17.57
2017-10-11T12:21:29.574Z,22.13
2017-10-11T12:23:59.906Z,20.03
2017-10-11T12:26:32.342Z,17.00
2017-10-11T12:29:03.514Z,15.83
2017-10-11T12:31:33.417Z,15.93
2017-10-11T12:34:03.905Z,15.07
2017-10-11T12:36:37.029Z,16.30
2017-10-11T12:39:08.370Z,15.50
2017-10-11T12:41:38.265Z,15.93
2017-10-11T12:44:08.969Z,19.10
2017-10-11T12:46:39.213Z,14.97
2017-10-11T12:49:09.538Z,13.73
2017-10-11T12:51:39.515Z,14.03
2017-10-11T12:54:10.039Z,13.33
2017-10-11T12:56:39.943Z,14.03
2017-10-11T12:59:10.439Z,13.00
2017-10-11T13:01:40.412Z,14.30
2017-10-11T13:04:10.871Z,14.87
2017-10-11T13:06:40.759Z,13.10
2017-10-11T13:09:11.127Z,14.07
2017-10-11T13:11:41.033Z,13.03
2017-10-11T13:14:11.334Z,30.27
2017-10-11T13:16:42.596Z,12.83
2017-10-11T13:19:13.936Z,14.90
2017-10-11T13:21:43.838Z,13.33
2017-10-11T13:24:14.163Z,12.20
2017-10-11T13:26:44.485Z,14.13
2017-10-11T13:29:14.803Z,13.33
2017-10-11T13:31:44.704Z,13.33
2017-10-11T13:34:15.085Z,18.57
2017-10-11T13:36:45.042Z,17.23
2017-10-11T13:39:15.632Z,17.50
2017-10-11T13:41:45.542Z,13.90
2017-10-11T13:44:15.965Z,14.50
2017-10-11T13:46:45.916Z,16.97
2017-10-11T13:49:15.860Z,15.77
2017-10-11T13:51:45.837Z,14.17
2017-10-11T13:54:15.858Z,20.10
2017-10-11T13:56:46.239Z,14.10
2017-10-11T13:59:16.223Z,13.47
2017-10-11T14:01:46.554Z,13.57
2017-10-11T14:04:16.493Z,12.87
2017-10-11T14:06:46.889Z,12.70
2017-10-11T14:09:16.860Z,14.83
2017-10-11T14:11:46.800Z,13.90
2017-10-11T14:14:16.851Z,14.20
2017-10-11T14:16:47.135Z,14.97
2017-10-11T14:19:17.484Z,13.57
2017-10-11T14:21:47.386Z,12.97
2017-10-11T14:24:17.654Z,16.93
2017-10-11T14:26:48.121Z,13.50
2017-10-11T14:29:18.576Z,13.40
2017-10-11T14:31:48.503Z,12.17
2017-10-11T14:34:18.892Z,15.50
2017-10-11T14:36:48.857Z,12.13
2017-10-11T14:39:19.247Z,12.57
2017-10-11T14:41:49.273Z,16.00
2017-10-11T14:44:20.021Z,12.83
2017-10-11T14:46:49.948Z,9.43
2017-10-11T14:49:20.396Z,10.63
2017-10-11T14:51:50.312Z,11.07
2017-10-11T14:54:20.676Z,10.00
2017-10-11T14:56:50.798Z,9.43
2017-10-11T14:59:21.116Z,11.63
2017-10-11T15:01:51.000Z,10.50
2017-10-11T15:04:21.485Z,11.43
2017-10-11T15:06:51.580Z,11.17
2017-10-11T15:09:21.831Z,10.07
2017-10-11T15:11:53.273Z,9.40
2017-10-11T15:14:23.803Z,9.73
2017-10-11T15:16:54.336Z,9.70
2017-10-11T15:19:26.423Z,8.37
2017-10-11T15:21:56.692Z,7.93
2017-10-11T15:24:28.022Z,8.13
2017-10-11T15:26:58.098Z,7.27
2017-10-11T15:29:28.337Z,8.97
2017-10-11T15:31:58.335Z,6.90
2017-10-11T15:34:28.620Z,7.10
2017-10-11T15:36:58.567Z,5.57
2017-10-11T15:39:29.304Z,6.87
2017-10-11T15:41:59.387Z,7.40
2017-10-11T15:44:29.692Z,5.17
2017-10-11T15:46:59.623Z,5.27
2017-10-11T15:49:29.964Z,7.87
2017-10-11T15:51:59.907Z,4.10
2017-10-11T15:54:30.167Z,4.50
2017-10-11T15:57:00.067Z,8.80
2017-10-11T15:59:30.362Z,6.43
2017-10-11T16:02:00.316Z,4.87
2017-10-11T16:04:31.354Z,7.20
2017-10-11T16:07:01.268Z,4.93
2017-10-11T16:09:31.723Z,5.73
2017-10-11T16:12:01.664Z,9.27
2017-10-11T16:14:32.126Z,4.63
2017-10-11T16:17:02.082Z,6.00
2017-10-11T16:19:32.391Z,4.07
2017-10-11T16:22:02.301Z,5.33
2017-10-11T16:24:32.563Z,3.83
2017-10-11T16:27:04.203Z,6.67
2017-10-11T16:29:36.204Z,5.00
2017-10-11T16:32:06.282Z,4.00
2017-10-11T16:34:36.538Z,4.00
2017-10-11T16:37:06.415Z,4.27
2017-10-11T16:39:36.702Z,9.10
2017-10-11T16:42:06.598Z,8.63
2017-10-11T16:44:37.006Z,5.90
2017-10-11T16:47:07.199Z,3.83
2017-10-11T16:49:38.346Z,2.93
2017-10-11T16:52:08.245Z,3.73
2017-10-11T16:54:38.702Z,4.30
2017-10-11T16:57:08.623Z,12.33
2017-10-11T16:59:39.026Z,5.03
2017-10-11T17:02:08.941Z,3.13
2017-10-11T17:04:38.883Z,6.67
2017-10-11T17:07:08.770Z,3.07
2017-10-11T17:09:38.708Z,3.80
2017-10-11T17:12:08.570Z,2.87
2017-10-11T17:14:41.702Z,4.20
2017-10-11T17:17:11.971Z,9.03
2017-10-11T17:19:41.869Z,4.97
2017-10-11T17:22:12.260Z,4.50
2017-10-11T17:24:42.149Z,7.40
2017-10-11T17:27:12.508Z,6.90
2017-10-11T17:29:42.477Z,3.90
2017-10-11T17:32:12.905Z,4.33
2017-10-11T17:34:42.831Z,5.17
2017-10-11T17:37:13.094Z,6.90
2017-10-11T17:39:42.992Z,8.80
2017-10-11T17:42:15.416Z,4.60
2017-10-11T17:44:45.331Z,4.70
2017-10-11T17:47:15.772Z,7.27
2017-10-11T17:49:45.678Z,6.23
2017-10-11T17:52:21.327Z,8.03
2017-10-11T17:54:51.247Z,4.30
2017-10-11T17:57:22.159Z,4.70
2017-10-11T17:59:52.516Z,7.97
2017-10-11T18:02:22.794Z,6.20
2017-10-11T18:04:52.712Z,5.77
2017-10-11T18:07:23.859Z,6.63
2017-10-11T18:09:53.805Z,6.07
2017-10-11T18:12:24.578Z,5.97
2017-10-11T18:14:54.612Z,6.07
2017-10-11T18:17:25.810Z,7.20
2017-10-11T18:19:55.715Z,5.60
2017-10-11T18:22:26.459Z,5.23
2017-10-11T18:24:57.524Z,9.33
2017-10-11T18:27:28.034Z,7.50
2017-10-11T18:29:57.947Z,6.00
2017-10-11T18:32:28.327Z,6.30
2017-10-11T18:34:58.335Z,7.17
2017-10-11T18:37:39.741Z,6.57
2017-10-11T18:53:09.706Z,7.30
2017-10-11T18:55:40.040Z,6.67
2017-10-11T18:58:10.038Z,8.47
2017-10-11T19:00:40.382Z,7.10
2017-10-11T19:03:10.351Z,7.47
2017-10-11T19:05:40.624Z,7.07
2017-10-11T19:08:10.518Z,8.00
2017-10-11T19:10:41.580Z,8.10
2017-10-11T19:13:11.843Z,8.53
2017-10-11T19:15:43.146Z,8.00
2017-10-11T19:18:13.107Z,7.60
2017-10-11T19:20:43.686Z,7.07
2017-10-11T19:23:14.875Z,9.57
2017-10-11T19:25:46.186Z,8.77
2017-10-11T19:28:16.098Z,8.83
2017-10-11T19:30:46.370Z,6.57
2017-10-11T19:33:16.353Z,7.53
2017-10-11T19:35:46.801Z,7.63
2017-10-11T19:38:16.735Z,7.37
2017-10-11T19:40:47.004Z,8.60
2017-10-11T19:43:16.912Z,10.23
2017-10-11T19:45:46.830Z,10.93
2017-10-11T19:48:16.818Z,9.20
2017-10-11T19:50:46.796Z,6.70
2017-10-11T19:53:16.726Z,7.30
2017-10-11T19:55:46.633Z,9.83
2017-10-11T19:58:17.011Z,10.60
2017-10-11T20:00:52.663Z,8.80
2017-10-11T20:03:24.131Z,7.13
2017-10-11T20:05:54.071Z,7.03
2017-10-11T20:08:24.437Z,7.93
2017-10-11T20:10:54.380Z,7.03
2017-10-11T20:13:24.751Z,6.90
2017-10-11T20:15:54.655Z,7.43
2017-10-11T20:18:25.870Z,6.57
2017-10-11T20:20:55.792Z,13.27
2017-10-11T20:23:26.285Z,7.90
2017-10-11T20:25:57.226Z,6.40
2017-10-11T20:28:27.587Z,7.27
2017-10-11T20:30:57.509Z,11.73
2017-10-11T20:33:27.969Z,8.07
2017-10-11T20:35:58.868Z,5.83
2017-10-11T20:38:29.492Z,6.40
2017-10-11T20:40:59.815Z,7.80
2017-10-11T20:43:30.644Z,6.23
2017-10-11T20:46:00.531Z,12.00
2017-10-11T20:48:31.097Z,5.87
2017-10-11T20:51:01.017Z,6.10
2017-10-11T20:53:31.622Z,6.17
2017-10-11T20:56:01.556Z,5.17
2017-10-11T20:58:31.854Z,7.10
2017-10-11T21:01:01.862Z,6.43
2017-10-11T21:03:33.040Z,10.47
2017-10-11T21:06:05.204Z,5.40
2017-10-11T21:08:35.583Z,5.27
2017-10-11T21:11:05.482Z,5.50
2017-10-11T21:13:38.230Z,7.47
2017-10-11T21:16:09.864Z,6.80
2017-10-11T21:18:40.135Z,7.17
2017-10-11T21:21:10.086Z,8.00
2017-10-11T21:23:40.370Z,6.73
2017-10-11T21:26:11.268Z,6.90
2017-10-11T21:28:41.646Z,8.93
2017-10-11T21:31:12.282Z,5.20
2017-10-11T21:33:42.761Z,5.40
2017-10-11T21:36:12.667Z,5.10
2017-10-11T21:38:45.034Z,8.23
2017-10-11T21:41:15.648Z,6.93
2017-10-11T21:43:45.974Z,6.10
2017-10-11T21:46:15.929Z,5.70
2017-10-11T21:48:49.500Z,5.73
2017-10-11T21:51:19.401Z,6.57
2017-10-11T21:53:52.167Z,5.57
2017-10-11T21:56:22.136Z,5.40
2017-10-11T21:58:52.852Z,5.37
2017-10-11T22:01:22.790Z,5.40
2017-10-11T22:03:53.119Z,5.43
2017-10-11T22:06:25.685Z,4.97
2017-10-11T22:08:56.034Z,5.93
2017-10-11T22:11:26.480Z,5.70
2017-10-11T22:13:57.608Z,6.17
2017-10-11T22:16:28.404Z,9.87
2017-10-11T22:18:58.750Z,5.07
2017-10-11T22:21:28.651Z,5.07
2017-10-11T22:23:58.938Z,6.83
2017-10-11T22:26:30.054Z,7.63
2017-10-11T22:29:00.442Z,7.17
2017-10-11T22:31:30.329Z,6.50
2017-10-11T22:34:00.690Z,6.80
2017-10-11T22:36:31.778Z,8.20
2017-10-11T22:39:02.161Z,11.67
2017-10-11T22:41:32.270Z,7.77
2017-10-11T22:44:02.734Z,9.07
2017-10-11T22:46:33.018Z,9.00
2017-10-11T22:49:03.343Z,8.20
2017-10-11T22:51:33.505Z,9.70
2017-10-11T22:54:04.027Z,11.87
2017-10-11T22:56:33.895Z,7.67
2017-10-11T22:59:03.869Z,8.27
2017-10-11T23:01:33.774Z,11.00
2017-10-11T23:04:03.668Z,6.27
2017-10-11T23:06:33.641Z,7.83
2017-10-11T23:09:03.570Z,8.67
2017-10-11T23:11:33.853Z,8.67
2017-10-11T23:14:03.773Z,10.60
2017-10-11T23:16:33.682Z,8.60
2017-10-11T23:19:03.615Z,8.30
2017-10-11T23:21:33.614Z,10.00
2017-10-11T23:24:03.529Z,11.63
2017-10-11T23:29:30.696Z,8.20
2017-10-11T23:32:00.618Z,10.57
2017-10-11T23:34:30.609Z,10.47
2017-10-11T23:37:00.542Z,10.50
2017-10-11T23:39:30.417Z,9.70
2017-10-11T23:42:00.329Z,11.57
2017-10-11T23:44:30.188Z,10.50
2017-10-11T23:47:00.224Z,11.83
2017-10-11T23:49:30.099Z,8.60
2017-10-11T23:52:00.029Z,13.70
2017-10-11T23:54:29.927Z,10.93
2017-10-11T23:56:59.843Z,12.40
2017-10-11T23:59:29.738Z,10.90
